sensor_id;sensor_type;location;lat;lon;timestamp;temperature;humidity
2913;DHT22;1466;48.778;9.166;2023-12-22T00:00:12;9.20;99.90
2913;DHT22;1466;48.778;9.166;2023-12-22T00:02:37;9.20;99.90
2913;DHT22;1466;48.778;9.166;2023-12-22T00:05:03;9.20;99.90
2913;DHT22;1466;48.778;9.166;2023-12-22T00:07:29;9.20;99.90
2913;DHT22;1466;48.778;9.166;2023-12-22T00:09:54;9.10;99.90
2913;DHT22;1466;48.778;9.166;2023-12-22T00:12:20;9.20;99.90
2913;DHT22;1466;48.778;9.166;2023-12-22T00:14:46;9.30;99.90
2913;DHT22;1466;48.778;9.166;2023-12-22T00:17:11;9.30;99.90
2913;DHT22;1466;48.778;9.166;2023-12-22T00:19:37;9.50;99.90
2913;DHT22;1466;48.778;9.166;2023-12-22T00:22:02;9.50;99.90
2913;DHT22;1466;48.778;9.166;2023-12-22T00:24:29;9.60;99.90
2913;DHT22;1466;48.778;9.166;2023-12-22T00:26:54;9.70;99.90
2913;DHT22;1466;48.778;9.166;2023-12-22T00:29:20;9.70;99.90
2913;DHT22;1466;48.778;9.166;2023-12-22T00:31:46;9.70;99.90
2913;DHT22;1466;48.778;9.166;2023-12-22T00:34:11;9.80;99.90
2913;DHT22;1466;48.778;9.166;2023-12-22T00:36:37;9.80;99.90
2913;DHT22;1466;48.778;9.166;2023-12-22T00:39:02;9.90;99.90
2913;DHT22;1466;48.778;9.166;2023-12-22T00:41:28;9.80;99.90
2913;DHT22;1466;48.778;9.166;2023-12-22T00:43:54;9.80;99.90
2913;DHT22;1466;48.778;9.166;2023-12-22T00:46:19;9.80;99.90
2913;DHT22;1466;48.778;9.166;2023-12-22T00:48:45;9.60;99.90
2913;DHT22;1466;48.778;9.166;2023-12-22T00:51:11;9.40;99.90
2913;DHT22;1466;48.778;9.166;2023-12-22T00:53:37;8.90;99.90
2913;DHT22;1466;48.778;9.166;2023-12-22T00:56:02;8.80;99.90
2913;DHT22;1466;48.778;9.166;2023-12-22T00:58:29;8.70;99.90
2913;DHT22;1466;48.778;9.166;2023-12-22T01:00:55;8.60;99.90
2913;DHT22;1466;48.778;9.166;2023-12-22T01:03:21;8.60;99.90
2913;DHT22;1466;48.778;9.166;2023-12-22T01:05:47;8.70;99.90
2913;DHT22;1466;48.778;9.166;2023-12-22T01:08:12;8.80;99.90
2913;DHT22;1466;48.778;9.166;2023-12-22T01:10:38;8.90;99.90
2913;DHT22;1466;48.778;9.166;2023-12-22T01:13:03;8.90;99.90
2913;DHT22;1466;48.778;9.166;2023-12-22T01:15:29;9.10;99.90
2913;DHT22;1466;48.778;9.166;2023-12-22T01:17:54;9.10;99.90
2913;DHT22;1466;48.778;9.166;2023-12-22T01:20:20;9.10;99.90
2913;DHT22;1466;48.778;9.166;2023-12-22T01:22:46;9.10;99.90
2913;DHT22;1466;48.778;9.166;2023-12-22T01:25:11;9.20;99.90
2913;DHT22;1466;48.778;9.166;2023-12-22T01:27:37;9.20;99.90
2913;DHT22;1466;48.778;9.166;2023-12-22T01:30:03;9.20;99.90
2913;DHT22;1466;48.778;9.166;2023-12-22T01:32:29;9.30;99.90
2913;DHT22;1466;48.778;9.166;2023-12-22T01:35:00;9.30;99.90
2913;DHT22;1466;48.778;9.166;2023-12-22T01:37:32;9.30;99.90
2913;DHT22;1466;48.778;9.166;2023-12-22T01:39:57;9.40;99.90
2913;DHT22;1466;48.778;9.166;2023-12-22T01:42:23;9.40;99.90
2913;DHT22;1466;48.778;9.166;2023-12-22T01:44:49;9.40;99.90
2913;DHT22;1466;48.778;9.166;2023-12-22T01:47:14;9.30;99.90
2913;DHT22;1466;48.778;9.166;2023-12-22T01:49:40;9.40;99.90
2913;DHT22;1466;48.778;9.166;2023-12-22T01:52:06;9.40;99.90
2913;DHT22;1466;48.778;9.166;2023-12-22T01:54:32;9.40;99.90
2913;DHT22;1466;48.778;9.166;2023-12-22T01:56:58;9.40;99.90
2913;DHT22;1466;48.778;9.166;2023-12-22T01:59:23;9.30;99.90
2913;DHT22;1466;48.778;9.166;2023-12-22T02:01:49;9.40;99.90
2913;DHT22;1466;48.778;9.166;2023-12-22T02:04:15;9.40;99.90
2913;DHT22;1466;48.778;9.166;2023-12-22T02:06:42;9.40;99.90
2913;DHT22;1466;48.778;9.166;2023-12-22T02:09:08;9.40;99.90
2913;DHT22;1466;48.778;9.166;2023-12-22T02:11:33;9.30;99.90
2913;DHT22;1466;48.778;9.166;2023-12-22T02:13:59;9.30;99.90
2913;DHT22;1466;48.778;9.166;2023-12-22T02:16:52;9.30;99.90
2913;DHT22;1466;48.778;9.166;2023-12-22T02:22:08;9.30;99.90
2913;DHT22;1466;48.778;9.166;2023-12-22T02:24:34;9.30;99.90
2913;DHT22;1466;48.778;9.166;2023-12-22T02:27:05;9.30;99.90
2913;DHT22;1466;48.778;9.166;2023-12-22T02:29:37;9.20;99.90
2913;DHT22;1466;48.778;9.166;2023-12-22T02:32:07;9.30;99.90
2913;DHT22;1466;48.778;9.166;2023-12-22T02:34:36;9.30;99.90
2913;DHT22;1466;48.778;9.166;2023-12-22T02:37:07;9.30;99.90
2913;DHT22;1466;48.778;9.166;2023-12-22T02:39:34;9.30;99.90
2913;DHT22;1466;48.778;9.166;2023-12-22T02:42:01;9.30;99.90
2913;DHT22;1466;48.778;9.166;2023-12-22T02:44:27;9.30;99.90
2913;DHT22;1466;48.778;9.166;2023-12-22T02:46:53;9.30;99.90
2913;DHT22;1466;48.778;9.166;2023-12-22T02:49:18;9.30;99.90
2913;DHT22;1466;48.778;9.166;2023-12-22T02:51:46;9.30;99.90
2913;DHT22;1466;48.778;9.166;2023-12-22T02:54:11;9.30;99.90
2913;DHT22;1466;48.778;9.166;2023-12-22T02:56:37;9.40;99.90
2913;DHT22;1466;48.778;9.166;2023-12-22T02:59:03;9.40;99.90
2913;DHT22;1466;48.778;9.166;2023-12-22T03:01:28;9.40;99.90
2913;DHT22;1466;48.778;9.166;2023-12-22T03:03:54;9.40;99.90
2913;DHT22;1466;48.778;9.166;2023-12-22T03:06:19;9.40;99.90
2913;DHT22;1466;48.778;9.166;2023-12-22T03:08:45;9.40;99.90
2913;DHT22;1466;48.778;9.166;2023-12-22T03:11:11;9.50;99.90
2913;DHT22;1466;48.778;9.166;2023-12-22T03:13:36;9.50;99.90
2913;DHT22;1466;48.778;9.166;2023-12-22T03:16:02;9.50;99.90
2913;DHT22;1466;48.778;9.166;2023-12-22T03:18:28;9.50;99.90
2913;DHT22;1466;48.778;9.166;2023-12-22T03:20:53;9.60;99.90
2913;DHT22;1466;48.778;9.166;2023-12-22T03:23:19;9.50;99.90
2913;DHT22;1466;48.778;9.166;2023-12-22T03:25:44;9.50;99.90
2913;DHT22;1466;48.778;9.166;2023-12-22T03:28:10;9.50;99.90
2913;DHT22;1466;48.778;9.166;2023-12-22T03:30:35;9.50;99.90
2913;DHT22;1466;48.778;9.166;2023-12-22T03:33:03;9.50;99.90
2913;DHT22;1466;48.778;9.166;2023-12-22T03:35:29;9.60;99.90
2913;DHT22;1466;48.778;9.166;2023-12-22T03:37:54;9.60;99.90
2913;DHT22;1466;48.778;9.166;2023-12-22T03:40:20;9.60;99.90
2913;DHT22;1466;48.778;9.166;2023-12-22T03:42:45;9.60;99.90
2913;DHT22;1466;48.778;9.166;2023-12-22T03:45:11;9.60;99.90
2913;DHT22;1466;48.778;9.166;2023-12-22T03:47:36;9.60;99.90
2913;DHT22;1466;48.778;9.166;2023-12-22T03:50:02;9.60;99.90
2913;DHT22;1466;48.778;9.166;2023-12-22T03:52:28;9.60;99.90
2913;DHT22;1466;48.778;9.166;2023-12-22T03:54:53;9.70;99.90
2913;DHT22;1466;48.778;9.166;2023-12-22T03:57:19;9.60;99.90
2913;DHT22;1466;48.778;9.166;2023-12-22T03:59:44;9.50;99.90
2913;DHT22;1466;48.778;9.166;2023-12-22T04:02:10;9.40;99.90
2913;DHT22;1466;48.778;9.166;2023-12-22T04:04:39;9.30;99.90
2913;DHT22;1466;48.778;9.166;2023-12-22T04:07:05;9.20;99.90
2913;DHT22;1466;48.778;9.166;2023-12-22T04:09:30;9.10;99.90
2913;DHT22;1466;48.778;9.166;2023-12-22T04:11:56;9.00;99.90
2913;DHT22;1466;48.778;9.166;2023-12-22T04:14:21;9.10;99.90
2913;DHT22;1466;48.778;9.166;2023-12-22T04:16:47;9.00;99.90
2913;DHT22;1466;48.778;9.166;2023-12-22T04:19:12;9.00;99.90
2913;DHT22;1466;48.778;9.166;2023-12-22T04:21:38;8.90;99.90
2913;DHT22;1466;48.778;9.166;2023-12-22T04:24:04;8.90;99.90
2913;DHT22;1466;48.778;9.166;2023-12-22T04:26:30;8.80;99.90
2913;DHT22;1466;48.778;9.166;2023-12-22T04:28:56;8.80;99.90
2913;DHT22;1466;48.778;9.166;2023-12-22T04:31:21;8.70;99.90
2913;DHT22;1466;48.778;9.166;2023-12-22T04:33:47;8.70;99.90
2913;DHT22;1466;48.778;9.166;2023-12-22T04:36:12;8.80;99.90
2913;DHT22;1466;48.778;9.166;2023-12-22T04:38:38;8.80;99.90
2913;DHT22;1466;48.778;9.166;2023-12-22T04:41:05;8.80;99.90
2913;DHT22;1466;48.778;9.166;2023-12-22T04:43:31;8.90;99.90
2913;DHT22;1466;48.778;9.166;2023-12-22T04:45:57;8.90;99.90
2913;DHT22;1466;48.778;9.166;2023-12-22T04:48:22;9.00;99.90
2913;DHT22;1466;48.778;9.166;2023-12-22T04:50:48;9.00;99.90
2913;DHT22;1466;48.778;9.166;2023-12-22T04:53:13;9.10;99.90
2913;DHT22;1466;48.778;9.166;2023-12-22T04:55:39;9.20;99.90
2913;DHT22;1466;48.778;9.166;2023-12-22T04:58:05;9.20;99.90
2913;DHT22;1466;48.778;9.166;2023-12-22T05:00:30;9.20;99.90
2913;DHT22;1466;48.778;9.166;2023-12-22T05:02:56;9.20;99.90
2913;DHT22;1466;48.778;9.166;2023-12-22T05:05:21;9.30;99.90
2913;DHT22;1466;48.778;9.166;2023-12-22T05:07:47;9.30;99.90
2913;DHT22;1466;48.778;9.166;2023-12-22T05:10:12;9.30;99.90
2913;DHT22;1466;48.778;9.166;2023-12-22T05:12:38;9.40;99.90
2913;DHT22;1466;48.778;9.166;2023-12-22T05:15:04;9.40;99.90
2913;DHT22;1466;48.778;9.166;2023-12-22T05:17:30;9.40;99.90
2913;DHT22;1466;48.778;9.166;2023-12-22T05:19:55;9.40;99.90
2913;DHT22;1466;48.778;9.166;2023-12-22T05:22:21;9.30;99.90
2913;DHT22;1466;48.778;9.166;2023-12-22T05:24:47;9.30;99.90
2913;DHT22;1466;48.778;9.166;2023-12-22T05:27:12;9.30;99.90
2913;DHT22;1466;48.778;9.166;2023-12-22T05:29:38;9.30;99.90
2913;DHT22;1466;48.778;9.166;2023-12-22T05:32:04;9.40;99.90
2913;DHT22;1466;48.778;9.166;2023-12-22T05:34:29;9.50;99.90
2913;DHT22;1466;48.778;9.166;2023-12-22T05:36:56;9.50;99.90
2913;DHT22;1466;48.778;9.166;2023-12-22T05:39:22;9.50;99.90
2913;DHT22;1466;48.778;9.166;2023-12-22T05:41:47;9.40;99.90
2913;DHT22;1466;48.778;9.166;2023-12-22T05:44:13;9.20;99.90
2913;DHT22;1466;48.778;9.166;2023-12-22T05:46:38;9.20;99.90
2913;DHT22;1466;48.778;9.166;2023-12-22T05:49:05;9.20;99.90
2913;DHT22;1466;48.778;9.166;2023-12-22T05:51:38;9.20;99.90
2913;DHT22;1466;48.778;9.166;2023-12-22T05:54:05;9.30;99.90
2913;DHT22;1466;48.778;9.166;2023-12-22T05:56:30;9.30;99.90
2913;DHT22;1466;48.778;9.166;2023-12-22T05:58:56;9.30;99.90
2913;DHT22;1466;48.778;9.166;2023-12-22T06:01:21;9.40;99.90
2913;DHT22;1466;48.778;9.166;2023-12-22T06:03:47;9.40;99.90
2913;DHT22;1466;48.778;9.166;2023-12-22T06:06:13;9.50;99.90
2913;DHT22;1466;48.778;9.166;2023-12-22T06:08:39;9.50;99.90
2913;DHT22;1466;48.778;9.166;2023-12-22T06:11:05;9.60;99.90
2913;DHT22;1466;48.778;9.166;2023-12-22T06:13:31;9.60;99.90
2913;DHT22;1466;48.778;9.166;2023-12-22T06:15:57;9.60;99.90
2913;DHT22;1466;48.778;9.166;2023-12-22T06:18:23;9.60;99.90
2913;DHT22;1466;48.778;9.166;2023-12-22T06:20:48;9.60;99.90
2913;DHT22;1466;48.778;9.166;2023-12-22T06:23:16;9.70;99.90
2913;DHT22;1466;48.778;9.166;2023-12-22T06:25:42;9.60;99.90
2913;DHT22;1466;48.778;9.166;2023-12-22T06:28:08;9.60;99.90
2913;DHT22;1466;48.778;9.166;2023-12-22T06:30:33;9.70;99.90
2913;DHT22;1466;48.778;9.166;2023-12-22T06:32:59;9.70;99.90
2913;DHT22;1466;48.778;9.166;2023-12-22T06:35:24;9.60;99.90
2913;DHT22;1466;48.778;9.166;2023-12-22T06:37:51;9.60;99.90
2913;DHT22;1466;48.778;9.166;2023-12-22T06:40:21;9.60;99.90
2913;DHT22;1466;48.778;9.166;2023-12-22T06:42:46;9.70;99.90
2913;DHT22;1466;48.778;9.166;2023-12-22T06:45:12;9.70;99.90
2913;DHT22;1466;48.778;9.166;2023-12-22T06:47:38;9.80;99.90
2913;DHT22;1466;48.778;9.166;2023-12-22T06:50:03;9.80;99.90
2913;DHT22;1466;48.778;9.166;2023-12-22T06:52:29;9.90;99.90
2913;DHT22;1466;48.778;9.166;2023-12-22T06:54:56;9.80;99.90
2913;DHT22;1466;48.778;9.166;2023-12-22T06:57:21;9.80;99.90
2913;DHT22;1466;48.778;9.166;2023-12-22T06:59:47;9.90;99.90
2913;DHT22;1466;48.778;9.166;2023-12-22T07:02:14;9.80;99.90
2913;DHT22;1466;48.778;9.166;2023-12-22T07:04:40;9.70;99.90
2913;DHT22;1466;48.778;9.166;2023-12-22T07:07:06;9.80;99.90
2913;DHT22;1466;48.778;9.166;2023-12-22T07:09:31;9.70;99.90
2913;DHT22;1466;48.778;9.166;2023-12-22T07:11:57;9.80;99.90
2913;DHT22;1466;48.778;9.166;2023-12-22T07:14:24;9.80;99.90
2913;DHT22;1466;48.778;9.166;2023-12-22T07:16:49;9.80;99.90
2913;DHT22;1466;48.778;9.166;2023-12-22T07:19:15;9.90;99.90
2913;DHT22;1466;48.778;9.166;2023-12-22T07:21:41;9.90;99.90
2913;DHT22;1466;48.778;9.166;2023-12-22T07:24:07;9.90;99.90
2913;DHT22;1466;48.778;9.166;2023-12-22T07:26:33;9.90;99.90
2913;DHT22;1466;48.778;9.166;2023-12-22T07:28:59;9.90;99.90
2913;DHT22;1466;48.778;9.166;2023-12-22T07:31:25;9.90;99.90
2913;DHT22;1466;48.778;9.166;2023-12-22T07:33:51;9.80;99.90
2913;DHT22;1466;48.778;9.166;2023-12-22T07:36:17;9.70;99.90
2913;DHT22;1466;48.778;9.166;2023-12-22T07:38:44;9.60;99.90
2913;DHT22;1466;48.778;9.166;2023-12-22T07:41:10;9.60;99.90
2913;DHT22;1466;48.778;9.166;2023-12-22T07:43:36;9.60;99.90
2913;DHT22;1466;48.778;9.166;2023-12-22T07:46:01;9.60;99.90
2913;DHT22;1466;48.778;9.166;2023-12-22T07:48:27;9.60;99.90
2913;DHT22;1466;48.778;9.166;2023-12-22T07:50:53;9.70;99.90
2913;DHT22;1466;48.778;9.166;2023-12-22T07:53:19;9.70;99.90
2913;DHT22;1466;48.778;9.166;2023-12-22T07:55:45;9.70;99.90
2913;DHT22;1466;48.778;9.166;2023-12-22T07:58:12;9.70;99.90
2913;DHT22;1466;48.778;9.166;2023-12-22T08:00:38;9.80;99.90
2913;DHT22;1466;48.778;9.166;2023-12-22T08:03:03;9.70;99.90
2913;DHT22;1466;48.778;9.166;2023-12-22T08:05:29;9.70;99.90
2913;DHT22;1466;48.778;9.166;2023-12-22T08:07:58;9.60;99.90
2913;DHT22;1466;48.778;9.166;2023-12-22T08:10:24;9.60;99.90
2913;DHT22;1466;48.778;9.166;2023-12-22T08:12:50;9.50;99.90
2913;DHT22;1466;48.778;9.166;2023-12-22T08:15:15;9.40;99.90
2913;DHT22;1466;48.778;9.166;2023-12-22T08:17:48;9.40;99.90
2913;DHT22;1466;48.778;9.166;2023-12-22T08:20:18;9.40;99.90
2913;DHT22;1466;48.778;9.166;2023-12-22T08:22:47;9.40;99.90
2913;DHT22;1466;48.778;9.166;2023-12-22T08:25:14;9.40;99.90
2913;DHT22;1466;48.778;9.166;2023-12-22T08:27:39;9.40;99.90
2913;DHT22;1466;48.778;9.166;2023-12-22T08:30:06;9.30;99.90
2913;DHT22;1466;48.778;9.166;2023-12-22T08:32:32;9.10;99.90
2913;DHT22;1466;48.778;9.166;2023-12-22T08:34:57;9.10;99.90
2913;DHT22;1466;48.778;9.166;2023-12-22T08:37:23;9.10;99.90
2913;DHT22;1466;48.778;9.166;2023-12-22T08:39:48;9.00;99.90
2913;DHT22;1466;48.778;9.166;2023-12-22T08:42:19;9.00;99.90
2913;DHT22;1466;48.778;9.166;2023-12-22T08:44:44;9.10;99.90
2913;DHT22;1466;48.778;9.166;2023-12-22T08:47:10;9.10;99.90
2913;DHT22;1466;48.778;9.166;2023-12-22T08:49:35;9.10;99.90
2913;DHT22;1466;48.778;9.166;2023-12-22T08:52:01;9.10;99.90
2913;DHT22;1466;48.778;9.166;2023-12-22T08:54:29;9.10;99.90
2913;DHT22;1466;48.778;9.166;2023-12-22T08:56:55;9.20;99.90
2913;DHT22;1466;48.778;9.166;2023-12-22T08:59:20;9.20;99.90
2913;DHT22;1466;48.778;9.166;2023-12-22T09:01:46;9.30;99.90
2913;DHT22;1466;48.778;9.166;2023-12-22T09:04:11;9.30;99.90
2913;DHT22;1466;48.778;9.166;2023-12-22T09:06:37;9.30;99.90
2913;DHT22;1466;48.778;9.166;2023-12-22T09:09:03;9.40;99.90
2913;DHT22;1466;48.778;9.166;2023-12-22T09:11:33;9.40;99.90
2913;DHT22;1466;48.778;9.166;2023-12-22T09:13:58;9.50;99.90
2913;DHT22;1466;48.778;9.166;2023-12-22T09:16:24;9.50;99.90
2913;DHT22;1466;48.778;9.166;2023-12-22T09:18:52;9.50;99.90
2913;DHT22;1466;48.778;9.166;2023-12-22T09:21:18;9.50;99.90
2913;DHT22;1466;48.778;9.166;2023-12-22T09:23:45;9.60;99.90
2913;DHT22;1466;48.778;9.166;2023-12-22T09:26:12;9.60;99.90
2913;DHT22;1466;48.778;9.166;2023-12-22T09:28:39;9.70;99.90
2913;DHT22;1466;48.778;9.166;2023-12-22T09:31:06;9.70;99.90
2913;DHT22;1466;48.778;9.166;2023-12-22T09:33:32;9.70;99.90
2913;DHT22;1466;48.778;9.166;2023-12-22T09:35:58;9.80;99.90
2913;DHT22;1466;48.778;9.166;2023-12-22T09:38:23;9.70;99.90
2913;DHT22;1466;48.778;9.166;2023-12-22T09:40:52;9.80;99.90
2913;DHT22;1466;48.778;9.166;2023-12-22T09:43:19;9.90;99.90
2913;DHT22;1466;48.778;9.166;2023-12-22T09:45:52;9.90;99.90
2913;DHT22;1466;48.778;9.166;2023-12-22T09:48:18;9.90;99.90
2913;DHT22;1466;48.778;9.166;2023-12-22T09:50:46;9.90;99.90
2913;DHT22;1466;48.778;9.166;2023-12-22T09:53:14;10.00;99.90
2913;DHT22;1466;48.778;9.166;2023-12-22T09:55:45;10.00;99.90
2913;DHT22;1466;48.778;9.166;2023-12-22T09:58:13;10.00;99.90
2913;DHT22;1466;48.778;9.166;2023-12-22T10:00:40;10.00;99.90
2913;DHT22;1466;48.778;9.166;2023-12-22T10:03:06;10.00;99.90
2913;DHT22;1466;48.778;9.166;2023-12-22T10:05:33;10.10;99.90
2913;DHT22;1466;48.778;9.166;2023-12-22T10:08:00;10.00;99.90
2913;DHT22;1466;48.778;9.166;2023-12-22T10:10:28;10.00;99.90
2913;DHT22;1466;48.778;9.166;2023-12-22T10:12:59;10.10;99.90
2913;DHT22;1466;48.778;9.166;2023-12-22T10:15:24;10.10;99.90
2913;DHT22;1466;48.778;9.166;2023-12-22T10:17:52;10.20;99.90
2913;DHT22;1466;48.778;9.166;2023-12-22T10:20:17;10.20;99.90
2913;DHT22;1466;48.778;9.166;2023-12-22T10:22:43;10.20;99.90
2913;DHT22;1466;48.778;9.166;2023-12-22T10:25:09;10.20;99.90
2913;DHT22;1466;48.778;9.166;2023-12-22T10:27:37;10.30;99.90
2913;DHT22;1466;48.778;9.166;2023-12-22T10:30:04;10.30;99.90
2913;DHT22;1466;48.778;9.166;2023-12-22T10:32:29;10.30;99.90
2913;DHT22;1466;48.778;9.166;2023-12-22T10:34:58;10.30;99.90
2913;DHT22;1466;48.778;9.166;2023-12-22T10:37:23;10.30;99.90
2913;DHT22;1466;48.778;9.166;2023-12-22T10:39:53;10.30;99.90
2913;DHT22;1466;48.778;9.166;2023-12-22T10:42:19;10.30;99.90
2913;DHT22;1466;48.778;9.166;2023-12-22T10:44:45;10.30;99.90
2913;DHT22;1466;48.778;9.166;2023-12-22T10:47:11;10.30;99.90
2913;DHT22;1466;48.778;9.166;2023-12-22T10:49:37;10.30;99.90
2913;DHT22;1466;48.778;9.166;2023-12-22T10:52:03;10.40;99.90
2913;DHT22;1466;48.778;9.166;2023-12-22T10:54:29;10.40;99.90
2913;DHT22;1466;48.778;9.166;2023-12-22T10:56:59;10.30;99.90
2913;DHT22;1466;48.778;9.166;2023-12-22T10:59:28;10.40;99.90
2913;DHT22;1466;48.778;9.166;2023-12-22T11:01:57;10.40;99.90
2913;DHT22;1466;48.778;9.166;2023-12-22T11:04:29;10.40;99.90
2913;DHT22;1466;48.778;9.166;2023-12-22T11:06:57;10.40;99.90
2913;DHT22;1466;48.778;9.166;2023-12-22T11:09:24;10.30;99.90
2913;DHT22;1466;48.778;9.166;2023-12-22T11:11:52;10.20;99.90
2913;DHT22;1466;48.778;9.166;2023-12-22T11:14:19;10.20;99.90
2913;DHT22;1466;48.778;9.166;2023-12-22T11:16:46;10.10;99.90
2913;DHT22;1466;48.778;9.166;2023-12-22T11:19:14;10.10;99.90
2913;DHT22;1466;48.778;9.166;2023-12-22T11:21:40;10.10;99.90
2913;DHT22;1466;48.778;9.166;2023-12-22T11:24:07;10.00;99.90
2913;DHT22;1466;48.778;9.166;2023-12-22T11:26:33;10.00;99.90
2913;DHT22;1466;48.778;9.166;2023-12-22T11:28:59;10.00;99.90
2913;DHT22;1466;48.778;9.166;2023-12-22T11:31:27;9.90;99.90
2913;DHT22;1466;48.778;9.166;2023-12-22T11:33:54;9.90;99.90
2913;DHT22;1466;48.778;9.166;2023-12-22T11:36:23;9.90;99.90
2913;DHT22;1466;48.778;9.166;2023-12-22T11:38:49;9.80;99.90
2913;DHT22;1466;48.778;9.166;2023-12-22T11:41:19;9.80;99.90
2913;DHT22;1466;48.778;9.166;2023-12-22T11:43:47;9.80;99.90
2913;DHT22;1466;48.778;9.166;2023-12-22T11:46:12;9.80;99.90
2913;DHT22;1466;48.778;9.166;2023-12-22T11:48:47;9.80;99.90
2913;DHT22;1466;48.778;9.166;2023-12-22T11:51:14;9.80;99.90
2913;DHT22;1466;48.778;9.166;2023-12-22T11:53:40;9.80;99.90
2913;DHT22;1466;48.778;9.166;2023-12-22T11:56:07;9.80;99.90
2913;DHT22;1466;48.778;9.166;2023-12-22T11:58:43;9.80;99.90
2913;DHT22;1466;48.778;9.166;2023-12-22T12:01:17;9.70;99.90
2913;DHT22;1466;48.778;9.166;2023-12-22T12:04:02;9.70;99.90
2913;DHT22;1466;48.778;9.166;2023-12-22T12:08:58;9.70;99.90
2913;DHT22;1466;48.778;9.166;2023-12-22T12:14:29;9.70;99.90
2913;DHT22;1466;48.778;9.166;2023-12-22T12:17:05;9.70;99.90
2913;DHT22;1466;48.778;9.166;2023-12-22T12:19:34;9.70;99.90
2913;DHT22;1466;48.778;9.166;2023-12-22T12:22:00;9.90;99.90
2913;DHT22;1466;48.778;9.166;2023-12-22T12:24:26;9.90;99.90
2913;DHT22;1466;48.778;9.166;2023-12-22T12:26:52;9.90;99.90
2913;DHT22;1466;48.778;9.166;2023-12-22T12:29:18;9.90;99.90
2913;DHT22;1466;48.778;9.166;2023-12-22T12:31:45;9.90;99.90
2913;DHT22;1466;48.778;9.166;2023-12-22T12:34:11;9.90;99.90
2913;DHT22;1466;48.778;9.166;2023-12-22T12:36:38;9.90;99.90
2913;DHT22;1466;48.778;9.166;2023-12-22T12:39:08;10.00;99.90
2913;DHT22;1466;48.778;9.166;2023-12-22T12:41:37;10.00;99.90
2913;DHT22;1466;48.778;9.166;2023-12-22T12:44:06;10.00;99.90
2913;DHT22;1466;48.778;9.166;2023-12-22T12:46:36;10.00;99.90
2913;DHT22;1466;48.778;9.166;2023-12-22T12:49:09;10.00;99.90
2913;DHT22;1466;48.778;9.166;2023-12-22T12:51:43;10.00;99.90
2913;DHT22;1466;48.778;9.166;2023-12-22T12:54:10;10.00;99.90
2913;DHT22;1466;48.778;9.166;2023-12-22T12:56:45;9.90;99.90
2913;DHT22;1466;48.778;9.166;2023-12-22T12:59:14;9.90;99.90
2913;DHT22;1466;48.778;9.166;2023-12-22T13:01:49;9.90;99.90
2913;DHT22;1466;48.778;9.166;2023-12-22T13:04:15;9.90;99.90
2913;DHT22;1466;48.778;9.166;2023-12-22T13:06:50;9.90;99.90
2913;DHT22;1466;48.778;9.166;2023-12-22T13:09:17;9.90;99.90
2913;DHT22;1466;48.778;9.166;2023-12-22T13:11:45;9.90;99.90
2913;DHT22;1466;48.778;9.166;2023-12-22T13:14:12;9.90;99.90
2913;DHT22;1466;48.778;9.166;2023-12-22T13:16:47;9.90;99.90
2913;DHT22;1466;48.778;9.166;2023-12-22T13:19:13;9.90;99.90
2913;DHT22;1466;48.778;9.166;2023-12-22T13:21:38;10.00;99.90
2913;DHT22;1466;48.778;9.166;2023-12-22T13:24:11;10.00;99.90
2913;DHT22;1466;48.778;9.166;2023-12-22T13:26:38;10.00;99.90
2913;DHT22;1466;48.778;9.166;2023-12-22T13:29:04;10.10;99.90
2913;DHT22;1466;48.778;9.166;2023-12-22T13:31:36;10.10;99.90
2913;DHT22;1466;48.778;9.166;2023-12-22T13:34:01;10.20;99.90
2913;DHT22;1466;48.778;9.166;2023-12-22T13:36:27;10.30;99.90
2913;DHT22;1466;48.778;9.166;2023-12-22T13:38:54;10.40;99.90
2913;DHT22;1466;48.778;9.166;2023-12-22T13:41:19;10.50;99.90
2913;DHT22;1466;48.778;9.166;2023-12-22T13:43:45;10.60;99.90
2913;DHT22;1466;48.778;9.166;2023-12-22T13:46:13;10.60;99.90
2913;DHT22;1466;48.778;9.166;2023-12-22T13:48:40;10.70;99.90
2913;DHT22;1466;48.778;9.166;2023-12-22T13:51:06;10.70;99.90
2913;DHT22;1466;48.778;9.166;2023-12-22T13:53:31;10.70;99.90
2913;DHT22;1466;48.778;9.166;2023-12-22T13:55:58;10.70;99.90
2913;DHT22;1466;48.778;9.166;2023-12-22T13:58:25;10.70;99.90
2913;DHT22;1466;48.778;9.166;2023-12-22T14:00:52;10.80;99.90
2913;DHT22;1466;48.778;9.166;2023-12-22T14:03:18;10.90;99.90
2913;DHT22;1466;48.778;9.166;2023-12-22T14:05:52;10.90;99.90
2913;DHT22;1466;48.778;9.166;2023-12-22T14:08:17;11.00;99.90
2913;DHT22;1466;48.778;9.166;2023-12-22T14:10:49;11.00;99.90
2913;DHT22;1466;48.778;9.166;2023-12-22T14:13:15;11.00;99.90
2913;DHT22;1466;48.778;9.166;2023-12-22T14:15:44;11.00;99.90
2913;DHT22;1466;48.778;9.166;2023-12-22T14:18:10;11.00;99.90
2913;DHT22;1466;48.778;9.166;2023-12-22T14:20:36;11.10;99.90
2913;DHT22;1466;48.778;9.166;2023-12-22T14:23:02;11.00;99.90
2913;DHT22;1466;48.778;9.166;2023-12-22T14:25:28;11.10;99.90
2913;DHT22;1466;48.778;9.166;2023-12-22T14:27:53;11.10;99.90
2913;DHT22;1466;48.778;9.166;2023-12-22T14:30:23;11.00;99.90
2913;DHT22;1466;48.778;9.166;2023-12-22T14:32:49;11.10;99.90
2913;DHT22;1466;48.778;9.166;2023-12-22T14:35:14;11.10;99.90
2913;DHT22;1466;48.778;9.166;2023-12-22T14:37:40;11.20;99.90
2913;DHT22;1466;48.778;9.166;2023-12-22T14:40:06;11.20;99.90
2913;DHT22;1466;48.778;9.166;2023-12-22T14:42:32;11.20;99.90
2913;DHT22;1466;48.778;9.166;2023-12-22T14:44:58;11.30;99.90
2913;DHT22;1466;48.778;9.166;2023-12-22T14:47:23;11.30;99.90
2913;DHT22;1466;48.778;9.166;2023-12-22T14:49:49;11.20;99.90
2913;DHT22;1466;48.778;9.166;2023-12-22T14:52:15;11.30;99.90
2913;DHT22;1466;48.778;9.166;2023-12-22T14:54:40;11.30;99.90
2913;DHT22;1466;48.778;9.166;2023-12-22T14:57:06;11.30;99.90
2913;DHT22;1466;48.778;9.166;2023-12-22T14:59:32;11.30;99.90
2913;DHT22;1466;48.778;9.166;2023-12-22T15:01:57;11.20;99.90
2913;DHT22;1466;48.778;9.166;2023-12-22T15:04:23;11.20;99.90
2913;DHT22;1466;48.778;9.166;2023-12-22T15:06:49;11.20;99.90
2913;DHT22;1466;48.778;9.166;2023-12-22T15:09:15;11.20;99.90
2913;DHT22;1466;48.778;9.166;2023-12-22T15:11:44;11.30;99.90
2913;DHT22;1466;48.778;9.166;2023-12-22T15:14:11;11.30;99.90
2913;DHT22;1466;48.778;9.166;2023-12-22T15:16:43;11.30;99.90
2913;DHT22;1466;48.778;9.166;2023-12-22T15:19:13;11.40;99.90
2913;DHT22;1466;48.778;9.166;2023-12-22T15:21:39;11.30;99.90
2913;DHT22;1466;48.778;9.166;2023-12-22T15:24:06;11.30;99.90
2913;DHT22;1466;48.778;9.166;2023-12-22T15:26:31;11.30;99.90
2913;DHT22;1466;48.778;9.166;2023-12-22T15:28:59;11.30;99.90
2913;DHT22;1466;48.778;9.166;2023-12-22T15:31:25;11.30;99.90
2913;DHT22;1466;48.778;9.166;2023-12-22T15:33:51;11.30;99.90
2913;DHT22;1466;48.778;9.166;2023-12-22T15:36:19;11.30;99.90
2913;DHT22;1466;48.778;9.166;2023-12-22T15:38:47;11.30;99.90
2913;DHT22;1466;48.778;9.166;2023-12-22T15:41:13;11.30;99.90
2913;DHT22;1466;48.778;9.166;2023-12-22T15:43:39;11.30;99.90
2913;DHT22;1466;48.778;9.166;2023-12-22T15:46:08;11.40;99.90
2913;DHT22;1466;48.778;9.166;2023-12-22T15:48:34;11.40;99.90
2913;DHT22;1466;48.778;9.166;2023-12-22T15:51:07;11.40;99.90
2913;DHT22;1466;48.778;9.166;2023-12-22T15:53:42;11.30;99.90
2913;DHT22;1466;48.778;9.166;2023-12-22T15:56:09;11.30;99.90
2913;DHT22;1466;48.778;9.166;2023-12-22T15:58:38;11.40;99.90
2913;DHT22;1466;48.778;9.166;2023-12-22T16:01:06;11.40;99.90
2913;DHT22;1466;48.778;9.166;2023-12-22T16:03:31;11.40;99.90
2913;DHT22;1466;48.778;9.166;2023-12-22T16:05:57;11.40;99.90
2913;DHT22;1466;48.778;9.166;2023-12-22T16:08:23;11.40;99.90
2913;DHT22;1466;48.778;9.166;2023-12-22T16:10:49;11.50;99.90
2913;DHT22;1466;48.778;9.166;2023-12-22T16:13:15;11.60;99.90
2913;DHT22;1466;48.778;9.166;2023-12-22T16:15:41;11.60;99.90